Time;durP1;ratioP1;P1;durP2;ratioP2;P2;SDS_P1;SDS_P2;PMS_P1;PMS_P2;Temp;Humidity;BMP_temperature;BMP_pressure;BME280_temperature;BME280_humidity;BME280_pressure;Samples;Min_cycle;Max_cycle;Signal;HPM_P1;HPM_P2
2024/01/28 00:01:57;;;;;;;15.45;6.90;;;2.00;99.90;;;;;;5080034;28;20055;-85
2024/01/28 00:04:23;;;;;;;14.60;6.50;;;1.50;99.90;;;;;;5078160;28;20373;-85
2024/01/28 00:06:49;;;;;;;12.95;7.18;;;1.30;99.90;;;;;;5055843;28;20036;-85
2024/01/28 00:09:15;;;;;;;14.50;6.90;;;0.90;99.90;;;;;;5060212;28;20071;-85
2024/01/28 00:11:43;;;;;;;15.75;7.28;;;1.60;99.90;;;;;;5068635;28;20461;-85
2024/01/28 00:14:09;;;;;;;13.73;6.75;;;1.00;99.90;;;;;;5051524;28;20048;-85
2024/01/28 00:16:34;;;;;;;13.50;6.97;;;1.80;99.90;;;;;;5058016;28;21006;-85
2024/01/28 00:19:00;;;;;;;15.40;7.53;;;1.10;99.90;;;;;;5046016;28;20044;-85
2024/01/28 00:21:27;;;;;;;11.55;6.28;;;1.10;99.90;;;;;;5063662;28;20048;-86
2024/01/28 00:23:53;;;;;;;16.50;6.07;;;1.10;99.90;;;;;;5046748;28;20458;-85
2024/01/28 00:26:19;;;;;;;14.38;5.72;;;1.00;99.90;;;;;;5067182;28;20056;-85
2024/01/28 00:28:45;;;;;;;12.70;6.55;;;1.40;99.90;;;;;;5059976;28;20044;-86
2024/01/28 00:31:12;;;;;;;14.63;6.70;;;1.50;99.90;;;;;;5055083;28;20062;-85
2024/01/28 00:33:38;;;;;;;15.65;6.35;;;2.30;99.90;;;;;;5057567;28;20036;-86
2024/01/28 00:36:04;;;;;;;13.85;5.70;;;1.70;99.90;;;;;;5059461;28;20473;-85
2024/01/28 00:38:31;;;;;;;16.35;6.18;;;0.80;99.90;;;;;;5036547;28;20163;-86
2024/01/28 00:41:02;;;;;;;10.80;6.05;;;0.80;99.90;;;;;;5049784;28;20119;-85
2024/01/28 00:43:28;;;;;;;15.02;6.10;;;1.70;99.90;;;;;;5079439;28;20119;-86
2024/01/28 00:45:53;;;;;;;16.33;6.28;;;1.60;99.90;;;;;;5057112;28;20433;-85
2024/01/28 00:48:19;;;;;;;19.35;6.82;;;1.00;99.90;;;;;;5057429;28;20442;-85
2024/01/28 00:50:45;;;;;;;16.48;6.75;;;-0.20;99.90;;;;;;5027630;28;20072;-85
2024/01/28 00:53:11;;;;;;;14.95;5.75;;;0.90;99.90;;;;;;5052170;28;20457;-86
2024/01/28 00:55:36;;;;;;;16.48;6.15;;;0.90;99.90;;;;;;5069302;28;20102;-86
2024/01/28 00:58:02;;;;;;;13.65;6.45;;;0.90;99.90;;;;;;5067239;28;20080;-86
2024/01/28 01:00:31;;;;;;;12.25;5.53;;;1.00;99.90;;;;;;5051072;28;20089;-86
2024/01/28 01:02:57;;;;;;;15.95;5.97;;;0.80;99.90;;;;;;5047682;28;20174;-87
2024/01/28 01:05:22;;;;;;;8.75;5.43;;;1.80;99.90;;;;;;5071190;28;20134;-86
2024/01/28 01:07:48;;;;;;;13.85;5.75;;;1.00;99.90;;;;;;5051574;28;20059;-86
2024/01/28 01:10:14;;;;;;;18.25;5.90;;;1.00;99.90;;;;;;5055122;28;20055;-85
2024/01/28 01:12:40;;;;;;;15.35;6.20;;;0.90;99.90;;;;;;5064951;28;20044;-85
2024/01/28 01:15:06;;;;;;;10.73;5.50;;;1.50;99.90;;;;;;5050605;28;20503;-85
2024/01/28 01:17:32;;;;;;;10.90;5.85;;;1.00;99.90;;;;;;5059267;28;20496;-85
2024/01/28 01:19:57;;;;;;;13.98;5.65;;;1.00;99.90;;;;;;5068768;28;20075;-86
2024/01/28 01:22:23;;;;;;;14.05;5.90;;;1.30;99.90;;;;;;5054032;28;20111;-86
2024/01/28 01:24:49;;;;;;;13.30;5.88;;;1.20;99.90;;;;;;5070299;28;20082;-86
2024/01/28 01:27:14;;;;;;;13.85;5.95;;;2.30;99.90;;;;;;5046341;28;20140;-86
2024/01/28 01:29:40;;;;;;;12.15;5.05;;;0.90;99.90;;;;;;5062118;28;20404;-86
2024/01/28 01:32:06;;;;;;;10.82;5.85;;;1.30;99.90;;;;;;5062039;28;20504;-86
2024/01/28 01:34:31;;;;;;;12.23;6.13;;;1.90;99.90;;;;;;5062569;28;20032;-86
2024/01/28 01:36:57;;;;;;;16.42;6.18;;;2.20;99.90;;;;;;5055979;28;20037;-85
2024/01/28 01:39:23;;;;;;;15.32;5.65;;;1.10;99.90;;;;;;5083060;28;20037;-86
2024/01/28 01:41:49;;;;;;;15.23;5.88;;;1.50;99.90;;;;;;5060428;28;20119;-86
2024/01/28 01:44:14;;;;;;;13.63;5.32;;;1.10;99.90;;;;;;5054975;28;20347;-86
2024/01/28 01:46:42;;;;;;;10.43;4.93;;;1.50;99.90;;;;;;5054833;28;20044;-86
2024/01/28 01:49:09;;;;;;;9.20;5.15;;;1.10;99.90;;;;;;5068799;28;20224;-86
2024/01/28 01:51:35;;;;;;;13.47;5.40;;;1.10;99.90;;;;;;5062239;28;20036;-85
2024/01/28 01:54:02;;;;;;;8.77;5.20;;;1.80;99.90;;;;;;5034719;28;20060;-86
2024/01/28 01:56:31;;;;;;;12.85;5.35;;;1.40;99.90;;;;;;5056920;28;20134;-86
2024/01/28 01:58:57;;;;;;;13.02;5.60;;;2.00;99.90;;;;;;5070089;28;20056;-86
2024/01/28 02:01:25;;;;;;;12.33;4.97;;;1.20;99.90;;;;;;5055705;28;20120;-85
2024/01/28 02:03:54;;;;;;;10.13;5.15;;;1.60;99.90;;;;;;5072678;28;20557;-86
2024/01/28 02:06:20;;;;;;;12.70;5.03;;;1.30;99.90;;;;;;5054723;28;20078;-86
2024/01/28 02:08:45;;;;;;;10.30;4.70;;;1.20;99.90;;;;;;5081183;28;20523;-86
2024/01/28 02:11:11;;;;;;;12.65;5.75;;;1.80;99.90;;;;;;5086567;28;20461;-86
2024/01/28 02:13:38;;;;;;;14.02;6.03;;;2.40;99.90;;;;;;5063850;28;20327;-86
2024/01/28 02:16:04;;;;;;;9.80;5.28;;;1.20;99.90;;;;;;5079396;28;20040;-85
2024/01/28 02:18:29;;;;;;;11.32;5.15;;;1.20;99.90;;;;;;5097434;28;20051;-86
2024/01/28 02:20:55;;;;;;;10.18;4.90;;;1.30;99.90;;;;;;5075416;28;20293;-86
2024/01/28 02:23:21;;;;;;;12.98;4.88;;;2.10;99.90;;;;;;5049957;28;20048;-85
2024/01/28 02:25:50;;;;;;;11.07;5.10;;;1.60;99.90;;;;;;5070803;28;20040;-85
2024/01/28 02:28:17;;;;;;;9.48;5.03;;;1.90;99.90;;;;;;5083019;28;20465;-85
2024/01/28 02:30:43;;;;;;;11.27;4.90;;;1.20;99.90;;;;;;5084095;28;20040;-84
2024/01/28 02:33:08;;;;;;;11.15;5.00;;;1.30;99.90;;;;;;5091471;28;20553;-85
2024/01/28 02:35:34;;;;;;;12.75;5.38;;;1.90;99.90;;;;;;5069111;28;20432;-85
2024/01/28 02:38:00;;;;;;;10.98;5.68;;;2.00;99.90;;;;;;5070640;28;20046;-85
2024/01/28 02:40:26;;;;;;;11.32;5.70;;;1.20;99.90;;;;;;5078027;28;20089;-85
2024/01/28 02:42:52;;;;;;;11.10;5.45;;;2.00;99.90;;;;;;5052239;28;20126;-85
2024/01/28 02:45:20;;;;;;;12.60;5.45;;;1.30;99.90;;;;;;5060468;28;20091;-85
2024/01/28 02:47:46;;;;;;;13.13;5.60;;;1.30;99.90;;;;;;5064920;28;20098;-85
2024/01/28 02:50:13;;;;;;;14.02;5.47;;;1.90;99.90;;;;;;5096378;28;20537;-85
2024/01/28 02:52:38;;;;;;;13.60;6.03;;;1.30;99.90;;;;;;5066753;28;20035;-86
2024/01/28 02:55:04;;;;;;;10.27;5.10;;;2.00;99.90;;;;;;5065921;28;20035;-86
2024/01/28 02:57:30;;;;;;;13.38;5.63;;;1.20;99.90;;;;;;5068992;28;20131;-85
2024/01/28 02:59:57;;;;;;;13.52;6.43;;;1.60;99.90;;;;;;5056795;28;20048;-86
2024/01/28 03:02:23;;;;;;;16.73;6.63;;;1.30;99.90;;;;;;5100253;28;20050;-86
2024/01/28 03:04:49;;;;;;;12.45;6.10;;;1.30;99.90;;;;;;5079958;28;20044;-86
2024/01/28 03:07:15;;;;;;;12.57;6.32;;;2.00;99.90;;;;;;5066203;27;20051;-86
2024/01/28 03:09:41;;;;;;;12.82;5.75;;;1.10;99.90;;;;;;5077595;27;20047;-85
2024/01/28 03:12:06;;;;;;;10.98;6.10;;;1.20;99.90;;;;;;5084376;27;20036;-86
2024/01/28 03:14:32;;;;;;;12.45;6.78;;;1.30;99.90;;;;;;5092934;27;20038;-86
2024/01/28 03:16:58;;;;;;;13.15;6.45;;;1.80;99.90;;;;;;5086751;27;20031;-85
2024/01/28 03:19:24;;;;;;;15.63;7.00;;;1.20;99.90;;;;;;5074184;28;20076;-85
2024/01/28 03:21:49;;;;;;;15.73;6.70;;;1.30;99.90;;;;;;5058028;27;20035;-86
2024/01/28 03:24:15;;;;;;;11.60;6.03;;;1.30;99.90;;;;;;5097485;28;20049;-86
2024/01/28 03:26:41;;;;;;;12.02;6.57;;;1.70;99.90;;;;;;5083576;28;20036;-85
2024/01/28 03:29:07;;;;;;;10.57;6.20;;;1.20;99.90;;;;;;5078264;28;20036;-86
2024/01/28 03:31:33;;;;;;;13.77;6.03;;;1.70;99.90;;;;;;5060188;27;20131;-86
2024/01/28 03:33:58;;;;;;;11.50;6.28;;;2.40;99.90;;;;;;5088760;28;20170;-85
2024/01/28 03:36:24;;;;;;;12.15;6.75;;;1.20;99.90;;;;;;5081281;28;20066;-85
2024/01/28 03:38:50;;;;;;;12.30;6.85;;;1.80;99.90;;;;;;5086467;27;20495;-86
2024/01/28 03:41:16;;;;;;;17.17;7.18;;;1.20;99.90;;;;;;5086683;28;20096;-85
2024/01/28 03:43:42;;;;;;;14.68;6.57;;;2.20;99.90;;;;;;5089640;27;20293;-86
2024/01/28 03:46:09;;;;;;;13.50;5.97;;;1.40;99.90;;;;;;5080306;28;20046;-85
2024/01/28 03:48:35;;;;;;;11.30;6.03;;;1.40;99.90;;;;;;5102201;28;20101;-86
2024/01/28 03:51:02;;;;;;;11.50;5.95;;;2.10;99.90;;;;;;5056348;27;20043;-85
2024/01/28 03:53:28;;;;;;;15.55;6.72;;;1.30;99.90;;;;;;5072697;28;20471;-85
2024/01/28 03:55:54;;;;;;;11.45;6.32;;;1.30;99.90;;;;;;5098158;28;20042;-86
2024/01/28 03:58:19;;;;;;;13.27;5.63;;;1.50;99.90;;;;;;5077181;28;20039;-85
2024/01/28 04:00:45;;;;;;;15.15;6.70;;;1.50;99.90;;;;;;5056996;28;20122;-85
2024/01/28 04:03:11;;;;;;;12.20;6.15;;;1.60;99.90;;;;;;5078615;28;20039;-86
2024/01/28 04:05:37;;;;;;;10.27;6.03;;;1.40;99.90;;;;;;5072363;28;20039;-85
2024/01/28 04:08:02;;;;;;;15.82;6.28;;;2.20;99.90;;;;;;5058156;28;20056;-86
2024/01/28 04:10:28;;;;;;;12.63;6.15;;;1.30;99.90;;;;;;5043572;28;20064;-86
2024/01/28 04:12:54;;;;;;;12.73;6.30;;;1.30;99.90;;;;;;5061220;28;20029;-85
2024/01/28 04:15:20;;;;;;;10.40;6.18;;;1.40;99.90;;;;;;5067339;28;20040;-85
2024/01/28 04:17:46;;;;;;;12.77;6.13;;;1.40;99.90;;;;;;5052267;28;20044;-85
2024/01/28 04:20:12;;;;;;;11.77;5.90;;;2.20;99.90;;;;;;5061958;28;20045;-85
2024/01/28 04:22:38;;;;;;;14.45;5.90;;;1.30;99.90;;;;;;5035121;28;20079;-85
2024/01/28 04:25:05;;;;;;;13.18;5.78;;;1.30;99.90;;;;;;5064209;28;20048;-85
2024/01/28 04:27:30;;;;;;;13.68;7.13;;;1.20;99.90;;;;;;5079888;28;20040;-85
2024/01/28 04:29:56;;;;;;;13.65;6.30;;;1.90;99.90;;;;;;5036026;28;20424;-85
2024/01/28 04:32:22;;;;;;;13.50;5.82;;;1.20;99.90;;;;;;5062615;28;20024;-85
2024/01/28 04:34:47;;;;;;;11.82;6.35;;;1.30;99.90;;;;;;5037984;28;20154;-85
2024/01/28 04:37:13;;;;;;;14.65;6.35;;;2.10;99.90;;;;;;5063316;28;20097;-85
2024/01/28 04:39:39;;;;;;;13.48;6.63;;;1.20;99.90;;;;;;5061316;28;20036;-86
2024/01/28 04:42:04;;;;;;;13.95;6.38;;;1.10;99.90;;;;;;5049230;28;20115;-85
2024/01/28 04:44:30;;;;;;;12.80;6.63;;;1.10;99.90;;;;;;5068676;28;20036;-85
2024/01/28 04:46:57;;;;;;;15.52;6.55;;;1.10;99.90;;;;;;5049979;28;20117;-86
2024/01/28 04:49:23;;;;;;;10.83;6.00;;;1.90;99.90;;;;;;5059643;28;20377;-85
2024/01/28 04:51:50;;;;;;;16.15;6.32;;;0.90;99.90;;;;;;5061034;28;20149;-85
2024/01/28 04:54:16;;;;;;;9.23;6.47;;;1.00;99.90;;;;;;5072687;28;20514;-85
2024/01/28 04:56:42;;;;;;;12.63;5.93;;;1.10;99.90;;;;;;5046093;28;20047;-85
2024/01/28 04:59:08;;;;;;;12.07;6.57;;;0.80;99.90;;;;;;5077158;28;20040;-85
2024/01/28 05:01:34;;;;;;;13.00;6.63;;;0.80;99.90;;;;;;5068508;28;20040;-85
2024/01/28 05:04:03;;;;;;;17.10;6.90;;;2.50;99.90;;;;;;5073888;28;20137;-85
2024/01/28 05:06:34;;;;;;;11.88;6.72;;;2.10;99.90;;;;;;5075279;28;20059;-86
2024/01/28 05:09:06;;;;;;;13.98;6.70;;;0.70;99.90;;;;;;5047286;28;20055;-86
2024/01/28 05:11:32;;;;;;;11.88;6.32;;;0.70;99.90;;;;;;5054824;28;20040;-85
2024/01/28 05:14:01;;;;;;;15.43;6.93;;;0.70;99.90;;;;;;5076494;28;20032;-85
2024/01/28 05:16:27;;;;;;;14.05;6.80;;;0.70;99.90;;;;;;5061037;28;20041;-85
2024/01/28 05:18:53;;;;;;;15.73;7.03;;;1.20;99.90;;;;;;5067384;28;20046;-86
2024/01/28 05:21:19;;;;;;;15.90;6.55;;;0.90;99.90;;;;;;5052338;28;20136;-86
2024/01/28 05:23:46;;;;;;;15.77;7.15;;;0.60;99.90;;;;;;5047060;28;20449;-86
2024/01/28 05:26:12;;;;;;;13.68;7.00;;;1.80;99.90;;;;;;5072211;28;20036;-85
2024/01/28 05:28:38;;;;;;;13.35;7.40;;;1.30;99.90;;;;;;5030102;28;20043;-85
2024/01/28 05:31:04;;;;;;;14.45;6.85;;;1.40;99.90;;;;;;5051577;28;20066;-85
2024/01/28 05:33:33;;;;;;;14.00;7.20;;;1.40;99.90;;;;;;5055982;28;20036;-86
2024/01/28 05:36:00;;;;;;;16.75;6.72;;;1.80;99.90;;;;;;5057161;28;20058;-86
2024/01/28 05:38:26;;;;;;;15.52;6.82;;;0.50;99.90;;;;;;5070687;28;20072;-85
2024/01/28 05:40:52;;;;;;;15.82;7.47;;;0.60;99.90;;;;;;5051516;28;20044;-86
2024/01/28 05:43:17;;;;;;;10.40;7.07;;;2.10;99.90;;;;;;5072220;28;20150;-85
2024/01/28 05:45:43;;;;;;;12.45;6.95;;;0.50;99.90;;;;;;5066920;28;20040;-86
2024/01/28 05:48:09;;;;;;;12.98;7.13;;;2.60;99.90;;;;;;5048913;28;20412;-85
2024/01/28 05:50:34;;;;;;;11.63;6.85;;;0.70;99.90;;;;;;5046244;28;20054;-85
2024/01/28 05:53:00;;;;;;;17.35;6.97;;;1.30;99.90;;;;;;5036314;28;20066;-85
2024/01/28 05:55:26;;;;;;;13.68;6.70;;;1.50;99.90;;;;;;5047040;28;20536;-85
2024/01/28 05:57:53;;;;;;;16.30;7.18;;;1.20;99.90;;;;;;5046650;28;20047;-85
2024/01/28 06:00:19;;;;;;;13.07;6.95;;;0.80;99.90;;;;;;5047959;28;20041;-85
2024/01/28 06:02:45;;;;;;;15.88;7.10;;;0.40;99.90;;;;;;5057192;28;20267;-85
2024/01/28 06:05:11;;;;;;;11.65;6.95;;;0.40;99.90;;;;;;5064040;28;20044;-84
2024/01/28 06:07:37;;;;;;;9.02;6.63;;;0.40;99.90;;;;;;5058391;28;20071;-85
2024/01/28 06:10:03;;;;;;;15.13;7.13;;;1.40;99.90;;;;;;5061411;28;20378;-85
2024/01/28 06:12:29;;;;;;;13.68;7.10;;;0.30;99.90;;;;;;5079531;28;20067;-85
2024/01/28 06:14:57;;;;;;;15.50;7.32;;;1.00;99.90;;;;;;5069056;28;20131;-85
2024/01/28 06:17:22;;;;;;;13.60;6.63;;;0.80;99.90;;;;;;5079153;28;20036;-85
2024/01/28 06:19:48;;;;;;;13.50;7.10;;;0.90;99.90;;;;;;5047812;28;20054;-85
2024/01/28 06:22:15;;;;;;;13.10;6.47;;;1.20;99.90;;;;;;5043240;28;20102;-85
2024/01/28 06:24:42;;;;;;;14.65;6.50;;;0.30;99.90;;;;;;5052179;28;20080;-85
2024/01/28 06:27:09;;;;;;;12.55;6.40;;;0.30;99.90;;;;;;5040964;28;20476;-85
2024/01/28 06:29:35;;;;;;;15.57;6.95;;;0.20;99.90;;;;;;5058929;28;20068;-85
2024/01/28 06:32:01;;;;;;;13.80;6.50;;;0.90;99.90;;;;;;5033415;28;20090;-85
2024/01/28 06:34:26;;;;;;;15.38;6.43;;;-0.30;99.90;;;;;;5055661;28;20041;-85
2024/01/28 06:36:52;;;;;;;13.55;7.38;;;0.80;99.90;;;;;;5054202;28;20098;-86
2024/01/28 06:39:18;;;;;;;14.88;6.25;;;0.80;99.90;;;;;;5063722;28;20115;-85
2024/01/28 06:41:43;;;;;;;12.00;6.93;;;0.10;99.90;;;;;;5061240;28;20040;-85
2024/01/28 06:44:09;;;;;;;12.20;6.70;;;1.60;99.90;;;;;;5080881;28;20039;-85
2024/01/28 06:46:35;;;;;;;11.60;6.35;;;1.80;99.90;;;;;;5056901;28;20052;-85
2024/01/28 06:49:02;;;;;;;13.10;6.18;;;0.50;99.90;;;;;;5050835;28;20032;-85
2024/01/28 06:51:28;;;;;;;14.23;6.80;;;0.70;99.90;;;;;;5055021;28;20033;-85
2024/01/28 06:53:54;;;;;;;12.75;7.22;;;1.40;99.90;;;;;;5064802;28;20385;-85
2024/01/28 06:56:19;;;;;;;13.23;7.80;;;0.30;99.90;;;;;;5062032;28;20369;-85
2024/01/28 06:58:47;;;;;;;19.55;7.03;;;0.20;99.90;;;;;;5083122;28;20067;-85
2024/01/28 07:01:12;;;;;;;;;;;1.00;99.90;;;;;;5032912;28;20040;-85
2024/01/28 07:03:38;;;;;;;14.20;6.68;;;0.70;99.90;;;;;;5066408;28;20512;-85
2024/01/28 07:06:04;;;;;;;16.20;6.80;;;-0.30;99.90;;;;;;5027966;28;20055;-85
2024/01/28 07:08:29;;;;;;;17.25;7.57;;;0.00;99.90;;;;;;5058926;28;20124;-86
2024/01/28 07:10:57;;;;;;;15.77;6.72;;;0.60;99.90;;;;;;5056455;28;20072;-86
2024/01/28 07:13:22;;;;;;;9.70;6.68;;;0.50;99.90;;;;;;5054451;28;20032;-84
2024/01/28 07:15:49;;;;;;;14.25;6.72;;;0.70;99.90;;;;;;5030179;28;20056;-85
2024/01/28 07:18:14;;;;;;;12.38;6.38;;;1.20;99.90;;;;;;5033716;28;20040;-85
2024/01/28 07:20:40;;;;;;;13.15;6.90;;;0.00;99.90;;;;;;5050816;28;20495;-85
2024/01/28 07:23:06;;;;;;;10.07;6.45;;;-0.10;99.90;;;;;;5059580;28;20369;-85
2024/01/28 07:25:32;;;;;;;16.00;6.85;;;;;;;;;;5053907;28;20164;-86
2024/01/28 07:27:58;;;;;;;11.75;6.22;;;-0.20;99.90;;;;;;5066715;28;20087;-86
2024/01/28 07:30:24;;;;;;;16.80;7.35;;;0.00;99.90;;;;;;5032990;28;20059;-86
2024/01/28 07:32:49;;;;;;;12.50;6.85;;;0.00;99.90;;;;;;5045798;28;20044;-86
2024/01/28 07:35:15;;;;;;;14.57;6.63;;;-0.10;99.90;;;;;;5073894;28;20123;-85
2024/01/28 07:37:42;;;;;;;13.05;6.55;;;0.00;99.90;;;;;;5058997;28;20036;-85
2024/01/28 07:40:08;;;;;;;19.10;6.68;;;0.10;99.90;;;;;;5056542;28;20093;-86
2024/01/28 07:42:34;;;;;;;12.05;6.60;;;-0.10;99.90;;;;;;5059294;28;20064;-85
2024/01/28 07:45:00;;;;;;;12.02;6.45;;;0.00;99.90;;;;;;5050752;28;20126;-85
2024/01/28 07:47:26;;;;;;;15.30;6.80;;;0.10;99.90;;;;;;5064317;28;20051;-86
2024/01/28 07:49:51;;;;;;;13.05;7.10;;;-0.10;99.90;;;;;;5076862;28;20036;-86
2024/01/28 07:52:17;;;;;;;18.30;7.07;;;0.00;99.90;;;;;;5059997;28;20468;-86
2024/01/28 07:54:43;;;;;;;14.05;7.18;;;0.20;99.90;;;;;;5058748;28;20039;-86
2024/01/28 07:57:08;;;;;;;11.80;6.47;;;0.20;99.90;;;;;;5050603;28;20032;-86
2024/01/28 07:59:34;;;;;;;14.77;7.10;;;0.20;99.90;;;;;;5040485;28;20033;-85
2024/01/28 08:02:00;;;;;;;9.52;6.40;;;0.30;99.90;;;;;;5035732;28;20123;-86
2024/01/28 08:04:28;;;;;;;13.55;6.63;;;0.30;99.90;;;;;;5035759;28;20047;-86
2024/01/28 08:06:54;;;;;;;15.73;7.18;;;0.40;99.90;;;;;;5060554;28;20111;-86
2024/01/28 08:09:20;;;;;;;13.23;6.90;;;0.40;99.90;;;;;;5079847;28;20205;-85
2024/01/28 08:11:45;;;;;;;13.65;6.68;;;0.50;99.90;;;;;;5066718;28;20126;-85
2024/01/28 08:14:11;;;;;;;11.65;6.68;;;0.50;99.90;;;;;;5076619;28;20040;-85
2024/01/28 08:16:37;;;;;;;10.77;6.60;;;0.60;99.90;;;;;;5072762;28;20077;-86
2024/01/28 08:19:05;;;;;;;14.23;6.82;;;0.70;99.90;;;;;;5049658;28;20032;-86
2024/01/28 08:21:31;;;;;;;13.60;6.63;;;0.50;99.90;;;;;;5074933;28;20047;-86
2024/01/28 08:23:57;;;;;;;14.00;6.68;;;0.70;99.90;;;;;;5075380;28;20052;-86
2024/01/28 08:26:23;;;;;;;11.15;6.32;;;0.60;99.90;;;;;;5080214;28;20067;-86
2024/01/28 08:28:49;;;;;;;11.80;5.78;;;0.80;99.90;;;;;;5079726;28;20157;-85
2024/01/28 08:31:15;;;;;;;12.45;6.55;;;0.80;99.90;;;;;;5056834;28;20119;-85
2024/01/28 08:33:40;;;;;;;10.75;5.80;;;0.60;99.90;;;;;;5070101;28;20433;-86
2024/01/28 08:36:06;;;;;;;11.93;6.50;;;0.60;99.90;;;;;;5073167;28;20044;-85
2024/01/28 08:38:33;;;;;;;14.15;5.97;;;1.20;99.90;;;;;;5080997;28;20456;-86
2024/01/28 08:41:00;;;;;;;11.40;6.50;;;0.70;99.90;;;;;;5047227;28;20036;-85
2024/01/28 08:43:25;;;;;;;10.20;5.60;;;0.50;99.90;;;;;;5055656;28;20096;-85
2024/01/28 08:45:51;;;;;;;9.65;5.55;;;0.60;99.90;;;;;;5106496;28;20126;-86
2024/01/28 08:48:17;;;;;;;11.13;5.85;;;0.50;99.90;;;;;;5059841;28;20032;-85
2024/01/28 08:50:43;;;;;;;15.45;5.43;;;0.60;99.90;;;;;;5070224;28;20036;-86
2024/01/28 08:53:11;;;;;;;11.97;5.50;;;0.60;99.90;;;;;;5057099;28;20479;-86
2024/01/28 08:55:36;;;;;;;11.65;5.57;;;0.90;99.90;;;;;;5052668;28;20803;-86
2024/01/28 08:58:02;;;;;;;9.00;6.00;;;0.80;99.90;;;;;;5065404;28;20047;-85
2024/01/28 09:00:28;;;;;;;12.77;5.82;;;0.80;99.90;;;;;;5065391;28;20361;-85
2024/01/28 09:02:54;;;;;;;8.02;5.13;;;1.00;99.90;;;;;;5063325;28;20194;-86
2024/01/28 09:05:19;;;;;;;11.85;5.60;;;0.90;99.90;;;;;;5068183;28;20032;-85
2024/01/28 09:07:45;;;;;;;10.40;5.53;;;1.10;99.90;;;;;;5049534;27;20070;-85
2024/01/28 09:10:11;;;;;;;10.23;4.72;;;1.20;99.90;;;;;;5065080;27;20252;-85
2024/01/28 09:12:37;;;;;;;9.05;5.20;;;;;;;;;;5051568;27;20038;-85
2024/01/28 09:15:03;;;;;;;11.10;5.05;;;0.50;99.90;;;;;;5088202;28;20092;-86
2024/01/28 09:17:29;;;;;;;12.75;5.07;;;1.20;99.90;;;;;;5079780;28;20103;-85
2024/01/28 09:19:56;;;;;;;11.38;5.07;;;1.20;99.90;;;;;;5055853;27;20551;-86
2024/01/28 09:22:22;;;;;;;8.13;4.93;;;1.30;99.90;;;;;;5068996;27;20510;-86
2024/01/28 09:24:47;;;;;;;10.48;4.50;;;1.50;99.90;;;;;;5069330;28;20031;-86
2024/01/28 09:27:13;;;;;;;13.80;5.13;;;1.60;99.90;;;;;;5063196;28;20042;-85
2024/01/28 09:29:39;;;;;;;9.82;4.63;;;1.60;99.90;;;;;;5059902;27;20122;-86
2024/01/28 09:32:05;;;;;;;9.65;4.50;;;1.80;99.90;;;;;;5073036;27;20115;-85
2024/01/28 09:34:30;;;;;;;8.60;4.32;;;2.00;99.90;;;;;;5086110;27;20043;-85
2024/01/28 09:36:56;;;;;;;8.45;4.05;;;2.10;99.90;;;;;;5088328;27;20044;-85
2024/01/28 09:39:22;;;;;;;10.25;4.13;;;2.20;99.90;;;;;;5058408;27;20430;-87
2024/01/28 09:42:25;;;;;;;8.88;4.13;;;2.40;99.90;;;;;;5069799;27;20035;-86
2024/01/28 09:44:51;;;;;;;8.82;3.90;;;2.40;99.90;;;;;;5086632;27;20557;-85
2024/01/28 09:47:19;;;;;;;8.40;3.95;;;2.60;99.90;;;;;;5071304;28;20039;-84
2024/01/28 09:49:46;;;;;;;7.72;4.15;;;2.90;99.90;;;;;;5072463;28;20036;-85
2024/01/28 09:52:13;;;;;;;8.25;4.05;;;3.10;99.90;;;;;;5098956;27;20061;-87
2024/01/28 09:54:41;;;;;;;6.90;3.95;;;3.30;99.90;;;;;;5087901;27;20042;-85
2024/01/28 09:57:09;;;;;;;7.05;3.85;;;3.40;99.90;;;;;;5098481;28;20035;-84
2024/01/28 09:59:36;;;;;;;8.20;3.88;;;3.40;99.90;;;;;;5078663;27;20115;-89
2024/01/28 10:02:05;;;;;;;7.40;3.97;;;3.40;99.90;;;;;;5086649;27;20129;-89
2024/01/28 10:04:31;;;;;;;6.90;3.42;;;3.60;99.90;;;;;;5086779;27;20070;-89
2024/01/28 10:06:59;;;;;;;9.23;4.53;;;;;;;;;;5085368;27;20047;-86
2024/01/28 10:09:29;;;;;;;9.30;3.42;;;3.50;99.90;;;;;;5079724;28;20385;-88
2024/01/28 10:12:00;;;;;;;6.00;3.63;;;3.50;99.90;;;;;;5081831;28;20058;-89
2024/01/28 10:14:26;;;;;;;7.18;3.95;;;3.50;99.90;;;;;;5065034;28;20124;-87
2024/01/28 10:16:57;;;;;;;8.70;3.47;;;3.50;99.90;;;;;;5079253;28;20070;-87
2024/01/28 10:19:23;;;;;;;8.30;3.75;;;3.40;99.90;;;;;;5078209;28;20082;-87
2024/01/28 10:21:52;;;;;;;5.35;2.85;;;3.40;99.90;;;;;;5096373;28;20036;-91
2024/01/28 10:24:19;;;;;;;7.15;3.40;;;3.40;99.90;;;;;;5080439;28;20046;-87
2024/01/28 10:26:47;;;;;;;6.25;3.40;;;3.50;99.90;;;;;;5069222;28;20075;-89
2024/01/28 10:29:13;;;;;;;10.32;3.80;;;3.30;99.90;;;;;;5071505;28;20036;-87
2024/01/28 10:31:40;;;;;;;5.88;3.40;;;3.40;99.90;;;;;;5083790;28;20571;-89
2024/01/28 10:34:08;;;;;;;6.45;3.30;;;3.30;99.90;;;;;;5081872;28;20032;-90
2024/01/28 10:36:37;;;;;;;8.20;3.17;;;3.30;99.90;;;;;;5083692;28;20338;-87
2024/01/28 10:39:04;;;;;;;9.00;3.80;;;3.40;99.90;;;;;;5065506;28;20036;-89
2024/01/28 10:41:32;;;;;;;;;;;3.60;99.90;;;;;;5094959;28;20522;-92
2024/01/28 10:44:08;;;;;;;6.18;2.90;;;3.80;99.90;;;;;;5079794;28;20090;-92
2024/01/28 10:46:38;;;;;;;6.32;2.75;;;3.90;99.90;;;;;;5083257;28;20039;-92
2024/01/28 10:49:09;;;;;;;6.35;3.08;;;4.10;99.90;;;;;;5061765;28;20123;-91
2024/01/28 10:51:36;;;;;;;6.80;3.20;;;4.20;99.90;;;;;;5103913;28;20194;-92
2024/01/28 10:54:09;;;;;;;5.13;2.83;;;4.20;99.90;;;;;;5064735;28;20053;-91
2024/01/28 10:56:37;;;;;;;4.28;2.40;;;4.30;99.90;;;;;;5063860;28;20032;-92
2024/01/28 10:59:04;;;;;;;7.63;3.00;;;;;;;;;;5078853;28;20036;-90
2024/01/28 11:01:32;;;;;;;6.30;3.25;;;4.50;99.90;;;;;;5070856;28;20036;-91
2024/01/28 11:03:58;;;;;;;;;;;4.70;99.90;;;;;;5073292;28;20369;-92
2024/01/28 11:06:29;;;;;;;7.90;2.50;;;4.60;99.90;;;;;;5092689;28;20325;-91
2024/01/28 11:08:57;;;;;;;4.82;2.80;;;4.70;99.90;;;;;;5074050;28;20068;-91
2024/01/28 11:11:24;;;;;;;5.93;2.60;;;;;;;;;;5061587;28;20097;-92
2024/01/28 11:13:49;;;;;;;5.57;3.03;;;4.80;99.90;;;;;;5064938;28;20036;-91
2024/01/28 11:16:16;;;;;;;6.85;2.35;;;4.90;99.90;;;;;;5062367;28;20033;-91
2024/01/28 11:19:05;;;;;;;4.47;2.28;;;5.00;99.90;;;;;;5051581;28;20051;-92
2024/01/28 11:21:33;;;;;;;5.63;2.45;;;5.10;99.90;;;;;;5050420;28;20051;-91
2024/01/28 11:23:59;;;;;;;6.53;2.67;;;5.20;99.90;;;;;;5060362;28;20055;-91
2024/01/28 11:26:26;;;;;;;5.18;2.58;;;5.30;99.90;;;;;;5049471;28;20036;-91
2024/01/28 11:28:55;;;;;;;6.70;2.50;;;5.40;99.90;;;;;;5053953;28;20102;-91
2024/01/28 11:31:36;;;;;;;5.00;2.45;;;5.50;99.90;;;;;;5050001;28;20474;-92
2024/01/28 11:34:21;;;;;;;4.93;2.70;;;5.60;99.90;;;;;;5050180;28;20465;-91
2024/01/28 11:36:48;;;;;;;5.03;2.30;;;;;;;;;;5056613;28;20075;-91
2024/01/28 11:39:15;;;;;;;8.07;2.38;;;5.70;99.90;;;;;;5070877;28;20040;-91
2024/01/28 11:41:45;;;;;;;6.50;2.78;;;5.80;99.90;;;;;;5066648;28;20126;-88
2024/01/28 11:44:12;;;;;;;4.85;2.30;;;5.90;99.90;;;;;;5082414;28;20226;-89
2024/01/28 11:46:39;;;;;;;3.80;2.20;;;5.90;99.90;;;;;;5043419;28;20389;-90
2024/01/28 11:49:06;;;;;;;4.73;2.30;;;6.00;99.90;;;;;;5073719;28;20040;-89
2024/01/28 11:51:34;;;;;;;7.20;2.38;;;6.00;99.90;;;;;;5057926;28;20051;-89
2024/01/28 11:54:01;;;;;;;4.93;2.00;;;6.10;99.90;;;;;;5054232;28;20036;-89
2024/01/28 11:56:36;;;;;;;4.60;2.15;;;6.10;99.90;;;;;;5058754;28;20131;-89
2024/01/28 11:59:03;;;;;;;4.10;2.22;;;6.10;99.90;;;;;;5067027;28;20113;-89
2024/01/28 12:01:29;;;;;;;4.82;2.03;;;6.20;99.90;;;;;;5045869;28;20036;-90
2024/01/28 12:03:55;;;;;;;4.18;2.28;;;6.30;99.90;;;;;;5035067;28;20035;-88
2024/01/28 12:06:29;;;;;;;4.68;1.80;;;6.30;99.90;;;;;;5050184;28;20041;-89
2024/01/28 12:08:56;;;;;;;3.97;1.80;;;6.30;99.90;;;;;;5047714;28;20397;-87
2024/01/28 12:11:24;;;;;;;3.70;1.95;;;6.40;99.90;;;;;;5056525;28;20093;-88
2024/01/28 12:13:50;;;;;;;2.47;1.75;;;6.40;99.90;;;;;;5060057;28;20053;-87
2024/01/28 12:16:22;;;;;;;7.90;2.10;;;6.50;99.90;;;;;;5071322;28;20040;-89
2024/01/28 12:18:49;;;;;;;5.03;2.28;;;6.50;99.90;;;;;;5044748;28;20461;-89
2024/01/28 12:21:19;;;;;;;3.93;2.00;;;6.50;99.90;;;;;;5059113;28;20044;-87
2024/01/28 12:23:59;;;;;;;7.22;2.10;;;6.50;99.90;;;;;;5054868;28;20036;-88
2024/01/28 12:26:26;;;;;;;4.50;2.05;;;6.50;99.90;;;;;;5052276;28;20044;-90
2024/01/28 12:28:54;;;;;;;5.03;2.25;;;6.50;99.90;;;;;;5061652;28;20049;-90
2024/01/28 12:31:21;;;;;;;5.00;1.80;;;6.50;99.90;;;;;;5071770;28;20033;-91
2024/01/28 12:33:48;;;;;;;4.93;2.20;;;6.60;99.90;;;;;;5055008;28;20492;-89
2024/01/28 12:36:14;;;;;;;4.63;1.85;;;6.60;99.90;;;;;;5059186;28;20225;-90
2024/01/28 12:38:42;;;;;;;5.80;2.10;;;6.70;99.90;;;;;;5080842;28;20040;-89
2024/01/28 12:41:10;;;;;;;6.05;1.88;;;6.70;99.90;;;;;;5061007;28;20170;-89
2024/01/28 12:43:40;;;;;;;3.00;1.63;;;6.80;99.90;;;;;;5081138;28;20063;-88
2024/01/28 12:46:07;;;;;;;5.45;1.90;;;6.80;99.90;;;;;;5055400;28;20032;-91
2024/01/28 12:48:33;;;;;;;3.47;1.70;;;6.90;99.90;;;;;;5053718;28;20040;-90
2024/01/28 12:51:00;;;;;;;5.13;2.70;;;6.90;99.90;;;;;;5050691;28;20041;-89